sensor_id;sensor_type;location;lat;lon;timestamp;temperature;humidity
26641;DHT22;14269;47.358;0.724;2023-04-15T00:01:33;11.0;77.0
26641;DHT22;14269;47.358;0.724;2023-04-15T00:04:13;11.0;77.0
26641;DHT22;14269;47.358;0.724;2023-04-15T00:06:49;11.0;78.0
26641;DHT22;14269;47.358;0.724;2023-04-15T00:09:26;11.0;78.0
26641;DHT22;14269;47.358;0.724;2023-04-15T00:11:58;11.0;78.0
26641;DHT22;14269;47.358;0.724;2023-04-15T00:14:30;11.0;78.0
26641;DHT22;14269;47.358;0.724;2023-04-15T00:17:02;11.0;77.0
26641;DHT22;14269;47.358;0.724;2023-04-15T00:19:43;11.0;77.0
26641;DHT22;14269;47.358;0.724;2023-04-15T00:22:25;11.0;77.0
26641;DHT22;14269;47.358;0.724;2023-04-15T00:24:56;11.0;77.0
26641;DHT22;14269;47.358;0.724;2023-04-15T00:27:28;11.0;77.0
26641;DHT22;14269;47.358;0.724;2023-04-15T00:29:59;11.0;77.0
26641;DHT22;14269;47.358;0.724;2023-04-15T00:32:31;11.0;76.0
26641;DHT22;14269;47.358;0.724;2023-04-15T00:35:03;11.0;76.0
26641;DHT22;14269;47.358;0.724;2023-04-15T00:37:35;11.0;76.0
26641;DHT22;14269;47.358;0.724;2023-04-15T00:40:17;11.0;75.0
26641;DHT22;14269;47.358;0.724;2023-04-15T00:42:58;11.0;75.0
26641;DHT22;14269;47.358;0.724;2023-04-15T00:45:30;11.0;75.0
26641;DHT22;14269;47.358;0.724;2023-04-15T00:48:12;11.0;75.0
26641;DHT22;14269;47.358;0.724;2023-04-15T00:50:43;11.0;75.0
26641;DHT22;14269;47.358;0.724;2023-04-15T00:53:15;11.0;75.0
26641;DHT22;14269;47.358;0.724;2023-04-15T00:55:46;11.0;75.0
26641;DHT22;14269;47.358;0.724;2023-04-15T00:58:18;11.0;75.0
26641;DHT22;14269;47.358;0.724;2023-04-15T01:00:53;11.0;74.0
26641;DHT22;14269;47.358;0.724;2023-04-15T01:03:31;11.0;74.0
26641;DHT22;14269;47.358;0.724;2023-04-15T01:06:03;11.0;74.0
26641;DHT22;14269;47.358;0.724;2023-04-15T01:08:35;11.0;74.0
26641;DHT22;14269;47.358;0.724;2023-04-15T01:11:07;11.0;74.0
26641;DHT22;14269;47.358;0.724;2023-04-15T01:13:38;11.0;73.0
26641;DHT22;14269;47.358;0.724;2023-04-15T01:16:10;10.0;74.0
26641;DHT22;14269;47.358;0.724;2023-04-15T01:18:41;10.0;74.0
26641;DHT22;14269;47.358;0.724;2023-04-15T01:21:13;10.0;73.0
26641;DHT22;14269;47.358;0.724;2023-04-15T01:23:46;10.0;73.0
26641;DHT22;14269;47.358;0.724;2023-04-15T01:26:27;10.0;72.0
26641;DHT22;14269;47.358;0.724;2023-04-15T01:28:58;10.0;72.0
26641;DHT22;14269;47.358;0.724;2023-04-15T01:31:30;10.0;73.0
26641;DHT22;14269;47.358;0.724;2023-04-15T01:34:01;10.0;73.0
26641;DHT22;14269;47.358;0.724;2023-04-15T01:36:33;10.0;72.0
26641;DHT22;14269;47.358;0.724;2023-04-15T01:39:05;10.0;71.0
26641;DHT22;14269;47.358;0.724;2023-04-15T01:41:36;10.0;72.0
26641;DHT22;14269;47.358;0.724;2023-04-15T01:44:08;10.0;71.0
26641;DHT22;14269;47.358;0.724;2023-04-15T01:46:40;10.0;72.0
26641;DHT22;14269;47.358;0.724;2023-04-15T01:49:11;10.0;72.0
26641;DHT22;14269;47.358;0.724;2023-04-15T01:51:43;10.0;72.0
26641;DHT22;14269;47.358;0.724;2023-04-15T01:54:15;10.0;72.0
26641;DHT22;14269;47.358;0.724;2023-04-15T01:56:46;10.0;72.0
26641;DHT22;14269;47.358;0.724;2023-04-15T01:59:18;10.0;72.0
26641;DHT22;14269;47.358;0.724;2023-04-15T02:01:49;10.0;72.0
26641;DHT22;14269;47.358;0.724;2023-04-15T02:04:31;10.0;72.0
26641;DHT22;14269;47.358;0.724;2023-04-15T02:07:03;10.0;72.0
26641;DHT22;14269;47.358;0.724;2023-04-15T02:09:34;10.0;72.0
26641;DHT22;14269;47.358;0.724;2023-04-15T02:12:06;10.0;72.0
26641;DHT22;14269;47.358;0.724;2023-04-15T02:14:38;10.0;72.0
26641;DHT22;14269;47.358;0.724;2023-04-15T02:17:09;10.0;72.0
26641;DHT22;14269;47.358;0.724;2023-04-15T02:19:41;10.0;73.0
26641;DHT22;14269;47.358;0.724;2023-04-15T02:22:17;10.0;73.0
26641;DHT22;14269;47.358;0.724;2023-04-15T02:24:54;10.0;72.0
26641;DHT22;14269;47.358;0.724;2023-04-15T02:27:27;10.0;73.0
26641;DHT22;14269;47.358;0.724;2023-04-15T02:30:08;10.0;72.0
26641;DHT22;14269;47.358;0.724;2023-04-15T02:32:42;10.0;73.0
26641;DHT22;14269;47.358;0.724;2023-04-15T02:35:21;10.0;73.0
26641;DHT22;14269;47.358;0.724;2023-04-15T02:38:03;10.0;72.0
26641;DHT22;14269;47.358;0.724;2023-04-15T02:40:35;10.0;73.0
26641;DHT22;14269;47.358;0.724;2023-04-15T02:43:06;10.0;72.0
26641;DHT22;14269;47.358;0.724;2023-04-15T02:45:38;10.0;72.0
26641;DHT22;14269;47.358;0.724;2023-04-15T02:48:10;10.0;72.0
26641;DHT22;14269;47.358;0.724;2023-04-15T02:50:41;10.0;72.0
26641;DHT22;14269;47.358;0.724;2023-04-15T02:53:13;10.0;72.0
26641;DHT22;14269;47.358;0.724;2023-04-15T02:55:45;10.0;73.0
26641;DHT22;14269;47.358;0.724;2023-04-15T02:58:16;10.0;72.0
26641;DHT22;14269;47.358;0.724;2023-04-15T03:00:49;10.0;72.0
26641;DHT22;14269;47.358;0.724;2023-04-15T03:03:30;10.0;72.0
26641;DHT22;14269;47.358;0.724;2023-04-15T03:06:01;10.0;73.0
26641;DHT22;14269;47.358;0.724;2023-04-15T03:08:33;10.0;73.0
26641;DHT22;14269;47.358;0.724;2023-04-15T03:11:05;11.0;73.0
26641;DHT22;14269;47.358;0.724;2023-04-15T03:13:46;10.0;73.0
26641;DHT22;14269;47.358;0.724;2023-04-15T03:16:18;10.0;73.0
26641;DHT22;14269;47.358;0.724;2023-04-15T03:18:50;11.0;73.0
26641;DHT22;14269;47.358;0.724;2023-04-15T03:21:22;10.0;73.0
26641;DHT22;14269;47.358;0.724;2023-04-15T03:24:03;10.0;73.0
26641;DHT22;14269;47.358;0.724;2023-04-15T03:26:35;10.0;74.0
26641;DHT22;14269;47.358;0.724;2023-04-15T03:29:06;10.0;74.0
26641;DHT22;14269;47.358;0.724;2023-04-15T03:31:38;10.0;74.0
26641;DHT22;14269;47.358;0.724;2023-04-15T03:34:10;10.0;74.0
26641;DHT22;14269;47.358;0.724;2023-04-15T03:36:41;10.0;74.0
26641;DHT22;14269;47.358;0.724;2023-04-15T03:39:13;10.0;74.0
26641;DHT22;14269;47.358;0.724;2023-04-15T03:41:44;10.0;74.0
26641;DHT22;14269;47.358;0.724;2023-04-15T03:44:16;10.0;74.0
26641;DHT22;14269;47.358;0.724;2023-04-15T03:46:48;10.0;74.0
26641;DHT22;14269;47.358;0.724;2023-04-15T03:49:21;10.0;74.0
26641;DHT22;14269;47.358;0.724;2023-04-15T03:52:01;10.0;74.0
26641;DHT22;14269;47.358;0.724;2023-04-15T03:54:33;10.0;74.0
26641;DHT22;14269;47.358;0.724;2023-04-15T03:57:04;10.0;73.0
26641;DHT22;14269;47.358;0.724;2023-04-15T03:59:36;10.0;73.0
26641;DHT22;14269;47.358;0.724;2023-04-15T04:02:08;10.0;73.0
26641;DHT22;14269;47.358;0.724;2023-04-15T04:04:39;10.0;73.0
26641;DHT22;14269;47.358;0.724;2023-04-15T04:07:14;10.0;71.0
26641;DHT22;14269;47.358;0.724;2023-04-15T04:09:53;9.0;71.0
26641;DHT22;14269;47.358;0.724;2023-04-15T04:12:24;9.0;70.0
26641;DHT22;14269;47.358;0.724;2023-04-15T04:14:56;9.0;70.0
26641;DHT22;14269;47.358;0.724;2023-04-15T04:17:28;9.0;69.0
26641;DHT22;14269;47.358;0.724;2023-04-15T04:19:59;9.0;68.0
26641;DHT22;14269;47.358;0.724;2023-04-15T04:22:36;9.0;68.0
26641;DHT22;14269;47.358;0.724;2023-04-15T04:25:13;9.0;68.0
26641;DHT22;14269;47.358;0.724;2023-04-15T04:27:44;9.0;68.0
26641;DHT22;14269;47.358;0.724;2023-04-15T04:30:16;9.0;68.0
26641;DHT22;14269;47.358;0.724;2023-04-15T04:32:49;9.0;68.0
26641;DHT22;14269;47.358;0.724;2023-04-15T04:35:29;9.0;67.0
26641;DHT22;14269;47.358;0.724;2023-04-15T04:38:01;9.0;67.0
26641;DHT22;14269;47.358;0.724;2023-04-15T04:40:33;9.0;67.0
26641;DHT22;14269;47.358;0.724;2023-04-15T04:43:04;9.0;67.0
26641;DHT22;14269;47.358;0.724;2023-04-15T04:45:36;9.0;67.0
26641;DHT22;14269;47.358;0.724;2023-04-15T04:48:09;9.0;67.0
26641;DHT22;14269;47.358;0.724;2023-04-15T04:50:49;9.0;67.0
26641;DHT22;14269;47.358;0.724;2023-04-15T04:53:21;9.0;67.0
26641;DHT22;14269;47.358;0.724;2023-04-15T04:55:53;9.0;67.0
26641;DHT22;14269;47.358;0.724;2023-04-15T04:58:24;9.0;66.0
26641;DHT22;14269;47.358;0.724;2023-04-15T05:00:56;9.0;67.0
26641;DHT22;14269;47.358;0.724;2023-04-15T05:03:28;9.0;67.0
26641;DHT22;14269;47.358;0.724;2023-04-15T05:06:00;9.0;67.0
26641;DHT22;14269;47.358;0.724;2023-04-15T05:08:41;9.0;67.0
26641;DHT22;14269;47.358;0.724;2023-04-15T05:11:13;9.0;67.0
26641;DHT22;14269;47.358;0.724;2023-04-15T05:13:44;9.0;67.0
26641;DHT22;14269;47.358;0.724;2023-04-15T05:16:16;9.0;67.0
26641;DHT22;14269;47.358;0.724;2023-04-15T05:18:58;9.0;67.0
26641;DHT22;14269;47.358;0.724;2023-04-15T05:21:30;9.0;67.0
26641;DHT22;14269;47.358;0.724;2023-04-15T05:24:01;9.0;67.0
26641;DHT22;14269;47.358;0.724;2023-04-15T05:26:33;9.0;67.0
26641;DHT22;14269;47.358;0.724;2023-04-15T05:29:04;9.0;67.0
26641;DHT22;14269;47.358;0.724;2023-04-15T05:31:36;9.0;67.0
26641;DHT22;14269;47.358;0.724;2023-04-15T05:34:08;9.0;67.0
26641;DHT22;14269;47.358;0.724;2023-04-15T05:36:39;9.0;66.0
26641;DHT22;14269;47.358;0.724;2023-04-15T05:39:11;9.0;67.0
26641;DHT22;14269;47.358;0.724;2023-04-15T05:41:43;9.0;66.0
26641;DHT22;14269;47.358;0.724;2023-04-15T05:44:14;9.0;66.0
26641;DHT22;14269;47.358;0.724;2023-04-15T05:46:46;9.0;66.0
26641;DHT22;14269;47.358;0.724;2023-04-15T05:49:17;9.0;66.0
26641;DHT22;14269;47.358;0.724;2023-04-15T05:51:49;9.0;66.0
26641;DHT22;14269;47.358;0.724;2023-04-15T05:54:22;9.0;66.0
26641;DHT22;14269;47.358;0.724;2023-04-15T05:56:52;9.0;66.0
26641;DHT22;14269;47.358;0.724;2023-04-15T05:59:25;9.0;66.0
26641;DHT22;14269;47.358;0.724;2023-04-15T06:02:06;9.0;66.0
26641;DHT22;14269;47.358;0.724;2023-04-15T06:04:38;9.0;66.0
26641;DHT22;14269;47.358;0.724;2023-04-15T06:07:09;9.0;66.0
26641;DHT22;14269;47.358;0.724;2023-04-15T06:09:41;9.0;65.0
26641;DHT22;14269;47.358;0.724;2023-04-15T06:12:12;9.0;65.0
26641;DHT22;14269;47.358;0.724;2023-04-15T06:14:44;9.0;66.0
26641;DHT22;14269;47.358;0.724;2023-04-15T06:17:17;9.0;66.0
26641;DHT22;14269;47.358;0.724;2023-04-15T06:19:57;9.0;65.0
26641;DHT22;14269;47.358;0.724;2023-04-15T06:22:29;9.0;64.0
26641;DHT22;14269;47.358;0.724;2023-04-15T06:25:01;9.0;65.0
26641;DHT22;14269;47.358;0.724;2023-04-15T06:27:32;9.0;65.0
26641;DHT22;14269;47.358;0.724;2023-04-15T06:30:06;9.0;64.0
26641;DHT22;14269;47.358;0.724;2023-04-15T06:32:46;9.0;65.0
26641;DHT22;14269;47.358;0.724;2023-04-15T06:35:18;9.0;65.0
26641;DHT22;14269;47.358;0.724;2023-04-15T06:37:50;9.0;65.0
26641;DHT22;14269;47.358;0.724;2023-04-15T06:40:31;9.0;65.0
26641;DHT22;14269;47.358;0.724;2023-04-15T06:43:03;9.0;66.0
26641;DHT22;14269;47.358;0.724;2023-04-15T06:45:34;9.0;65.0
26641;DHT22;14269;47.358;0.724;2023-04-15T06:48:06;10.0;66.0
26641;DHT22;14269;47.358;0.724;2023-04-15T06:50:37;9.0;66.0
26641;DHT22;14269;47.358;0.724;2023-04-15T06:53:09;10.0;65.0
26641;DHT22;14269;47.358;0.724;2023-04-15T06:55:41;10.0;66.0
26641;DHT22;14269;47.358;0.724;2023-04-15T06:58:12;10.0;65.0
26641;DHT22;14269;47.358;0.724;2023-04-15T07:00:45;10.0;64.0
26641;DHT22;14269;47.358;0.724;2023-04-15T07:03:16;10.0;64.0
26641;DHT22;14269;47.358;0.724;2023-04-15T07:05:47;10.0;63.0
26641;DHT22;14269;47.358;0.724;2023-04-15T07:08:19;10.0;62.0
26641;DHT22;14269;47.358;0.724;2023-04-15T07:10:51;11.0;62.0
26641;DHT22;14269;47.358;0.724;2023-04-15T07:13:22;11.0;61.0
26641;DHT22;14269;47.358;0.724;2023-04-15T07:15:54;12.0;60.0
26641;DHT22;14269;47.358;0.724;2023-04-15T07:18:26;11.0;60.0
26641;DHT22;14269;47.358;0.724;2023-04-15T07:20:57;12.0;60.0
26641;DHT22;14269;47.358;0.724;2023-04-15T07:23:29;12.0;60.0
26641;DHT22;14269;47.358;0.724;2023-04-15T07:26:01;12.0;60.0
26641;DHT22;14269;47.358;0.724;2023-04-15T07:28:32;12.0;61.0
26641;DHT22;14269;47.358;0.724;2023-04-15T07:31:04;11.0;61.0
26641;DHT22;14269;47.358;0.724;2023-04-15T07:33:36;11.0;63.0
26641;DHT22;14269;47.358;0.724;2023-04-15T07:36:08;12.0;62.0
26641;DHT22;14269;47.358;0.724;2023-04-15T07:38:49;12.0;62.0
26641;DHT22;14269;47.358;0.724;2023-04-15T07:41:21;12.0;61.0
26641;DHT22;14269;47.358;0.724;2023-04-15T07:43:52;12.0;61.0
26641;DHT22;14269;47.358;0.724;2023-04-15T07:46:26;12.0;61.0
26641;DHT22;14269;47.358;0.724;2023-04-15T07:49:06;12.0;61.0
26641;DHT22;14269;47.358;0.724;2023-04-15T07:51:37;12.0;60.0
26641;DHT22;14269;47.358;0.724;2023-04-15T07:54:09;13.0;59.0
26641;DHT22;14269;47.358;0.724;2023-04-15T07:56:40;13.0;59.0
26641;DHT22;14269;47.358;0.724;2023-04-15T07:59:14;12.0;59.0
26641;DHT22;14269;47.358;0.724;2023-04-15T08:01:54;12.0;60.0
26641;DHT22;14269;47.358;0.724;2023-04-15T08:04:26;12.0;59.0
26641;DHT22;14269;47.358;0.724;2023-04-15T08:07:07;12.0;58.0
26641;DHT22;14269;47.358;0.724;2023-04-15T08:09:39;13.0;57.0
26641;DHT22;14269;47.358;0.724;2023-04-15T08:12:12;12.0;58.0
26641;DHT22;14269;47.358;0.724;2023-04-15T08:14:54;12.0;59.0
26641;DHT22;14269;47.358;0.724;2023-04-15T08:17:34;13.0;58.0
26641;DHT22;14269;47.358;0.724;2023-04-15T08:20:06;13.0;57.0
26641;DHT22;14269;47.358;0.724;2023-04-15T08:22:37;13.0;57.0
26641;DHT22;14269;47.358;0.724;2023-04-15T08:25:09;13.0;57.0
26641;DHT22;14269;47.358;0.724;2023-04-15T08:27:41;13.0;57.0
26641;DHT22;14269;47.358;0.724;2023-04-15T08:30:13;12.0;56.0
26641;DHT22;14269;47.358;0.724;2023-04-15T08:32:45;12.0;58.0
26641;DHT22;14269;47.358;0.724;2023-04-15T08:35:26;12.0;57.0
26641;DHT22;14269;47.358;0.724;2023-04-15T08:37:57;11.0;57.0
26641;DHT22;14269;47.358;0.724;2023-04-15T08:40:38;12.0;58.0
26641;DHT22;14269;47.358;0.724;2023-04-15T08:43:17;12.0;57.0
26641;DHT22;14269;47.358;0.724;2023-04-15T08:45:53;12.0;58.0
26641;DHT22;14269;47.358;0.724;2023-04-15T08:48:36;11.0;58.0
26641;DHT22;14269;47.358;0.724;2023-04-15T08:51:16;12.0;57.0
26641;DHT22;14269;47.358;0.724;2023-04-15T08:53:48;12.0;56.0
26641;DHT22;14269;47.358;0.724;2023-04-15T08:56:23;11.0;58.0
26641;DHT22;14269;47.358;0.724;2023-04-15T08:59:02;12.0;58.0
26641;DHT22;14269;47.358;0.724;2023-04-15T09:01:43;11.0;57.0
26641;DHT22;14269;47.358;0.724;2023-04-15T09:04:15;12.0;58.0
26641;DHT22;14269;47.358;0.724;2023-04-15T09:06:46;12.0;58.0
26641;DHT22;14269;47.358;0.724;2023-04-15T09:09:18;12.0;56.0
26641;DHT22;14269;47.358;0.724;2023-04-15T09:11:50;12.0;58.0
26641;DHT22;14269;47.358;0.724;2023-04-15T09:14:21;12.0;58.0
26641;DHT22;14269;47.358;0.724;2023-04-15T09:16:57;11.0;56.0
26641;DHT22;14269;47.358;0.724;2023-04-15T09:19:34;12.0;56.0
26641;DHT22;14269;47.358;0.724;2023-04-15T09:22:06;12.0;56.0
26641;DHT22;14269;47.358;0.724;2023-04-15T09:24:39;12.0;56.0
26641;DHT22;14269;47.358;0.724;2023-04-15T09:27:19;12.0;56.0
26641;DHT22;14269;47.358;0.724;2023-04-15T09:29:52;12.0;56.0
26641;DHT22;14269;47.358;0.724;2023-04-15T09:32:33;12.0;56.0
26641;DHT22;14269;47.358;0.724;2023-04-15T09:35:10;12.0;56.0
26641;DHT22;14269;47.358;0.724;2023-04-15T09:37:46;12.0;55.0
26641;DHT22;14269;47.358;0.724;2023-04-15T09:40:31;13.0;55.0
26641;DHT22;14269;47.358;0.724;2023-04-15T09:43:11;13.0;54.0
26641;DHT22;14269;47.358;0.724;2023-04-15T09:45:52;12.0;55.0
26641;DHT22;14269;47.358;0.724;2023-04-15T09:48:26;13.0;55.0
26641;DHT22;14269;47.358;0.724;2023-04-15T09:51:05;13.0;54.0
26641;DHT22;14269;47.358;0.724;2023-04-15T09:53:37;12.0;56.0
26641;DHT22;14269;47.358;0.724;2023-04-15T09:56:09;12.0;54.0
26641;DHT22;14269;47.358;0.724;2023-04-15T09:58:41;12.0;55.0
26641;DHT22;14269;47.358;0.724;2023-04-15T10:01:22;13.0;55.0
26641;DHT22;14269;47.358;0.724;2023-04-15T10:03:56;13.0;54.0
26641;DHT22;14269;47.358;0.724;2023-04-15T10:06:35;13.0;54.0
26641;DHT22;14269;47.358;0.724;2023-04-15T10:09:07;13.0;54.0
26641;DHT22;14269;47.358;0.724;2023-04-15T10:11:38;13.0;52.0
26641;DHT22;14269;47.358;0.724;2023-04-15T10:14:12;13.0;51.0
26641;DHT22;14269;47.358;0.724;2023-04-15T10:16:52;12.0;54.0
26641;DHT22;14269;47.358;0.724;2023-04-15T10:19:36;12.0;54.0
26641;DHT22;14269;47.358;0.724;2023-04-15T10:22:16;12.0;54.0
26641;DHT22;14269;47.358;0.724;2023-04-15T10:24:59;12.0;55.0
26641;DHT22;14269;47.358;0.724;2023-04-15T10:27:39;12.0;55.0
26641;DHT22;14269;47.358;0.724;2023-04-15T10:30:21;13.0;54.0
26641;DHT22;14269;47.358;0.724;2023-04-15T10:32:53;13.0;53.0
26641;DHT22;14269;47.358;0.724;2023-04-15T10:35:35;13.0;53.0
26641;DHT22;14269;47.358;0.724;2023-04-15T10:38:32;13.0;53.0
26641;DHT22;14269;47.358;0.724;2023-04-15T10:41:12;13.0;53.0
26641;DHT22;14269;47.358;0.724;2023-04-15T10:43:52;13.0;54.0
26641;DHT22;14269;47.358;0.724;2023-04-15T10:46:36;13.0;55.0
26641;DHT22;14269;47.358;0.724;2023-04-15T10:49:14;13.0;54.0
26641;DHT22;14269;47.358;0.724;2023-04-15T10:51:57;13.0;54.0
26641;DHT22;14269;47.358;0.724;2023-04-15T10:54:38;13.0;54.0
26641;DHT22;14269;47.358;0.724;2023-04-15T10:57:22;13.0;53.0
26641;DHT22;14269;47.358;0.724;2023-04-15T11:00:09;12.0;54.0
26641;DHT22;14269;47.358;0.724;2023-04-15T11:02:45;13.0;53.0
26641;DHT22;14269;47.358;0.724;2023-04-15T11:05:47;13.0;53.0
26641;DHT22;14269;47.358;0.724;2023-04-15T11:08:53;13.0;53.0
26641;DHT22;14269;47.358;0.724;2023-04-15T11:13:50;14.0;52.0
26641;DHT22;14269;47.358;0.724;2023-04-15T11:16:41;14.0;51.0
26641;DHT22;14269;47.358;0.724;2023-04-15T11:19:12;14.0;51.0
26641;DHT22;14269;47.358;0.724;2023-04-15T11:21:44;13.0;52.0
26641;DHT22;14269;47.358;0.724;2023-04-15T11:24:25;14.0;50.0
26641;DHT22;14269;47.358;0.724;2023-04-15T11:26:57;14.0;51.0
26641;DHT22;14269;47.358;0.724;2023-04-15T11:29:30;14.0;50.0
26641;DHT22;14269;47.358;0.724;2023-04-15T11:32:11;13.0;51.0
26641;DHT22;14269;47.358;0.724;2023-04-15T11:34:45;13.0;53.0
26641;DHT22;14269;47.358;0.724;2023-04-15T11:37:28;13.0;52.0
26641;DHT22;14269;47.358;0.724;2023-04-15T11:40:08;14.0;51.0
26641;DHT22;14269;47.358;0.724;2023-04-15T11:43:03;14.0;51.0
26641;DHT22;14269;47.358;0.724;2023-04-15T11:45:49;13.0;52.0
26641;DHT22;14269;47.358;0.724;2023-04-15T11:48:23;13.0;51.0
26641;DHT22;14269;47.358;0.724;2023-04-15T11:51:04;13.0;52.0
26641;DHT22;14269;47.358;0.724;2023-04-15T11:53:47;13.0;51.0
26641;DHT22;14269;47.358;0.724;2023-04-15T11:56:27;14.0;52.0
26641;DHT22;14269;47.358;0.724;2023-04-15T11:58:58;13.0;52.0
26641;DHT22;14269;47.358;0.724;2023-04-15T12:01:31;13.0;50.0
26641;DHT22;14269;47.358;0.724;2023-04-15T12:04:10;13.0;51.0
26641;DHT22;14269;47.358;0.724;2023-04-15T12:06:44;13.0;52.0
26641;DHT22;14269;47.358;0.724;2023-04-15T12:09:15;13.0;52.0
26641;DHT22;14269;47.358;0.724;2023-04-15T12:11:48;13.0;52.0
26641;DHT22;14269;47.358;0.724;2023-04-15T12:14:30;13.0;54.0
26641;DHT22;14269;47.358;0.724;2023-04-15T12:17:12;14.0;51.0
26641;DHT22;14269;47.358;0.724;2023-04-15T12:19:55;14.0;50.0
26641;DHT22;14269;47.358;0.724;2023-04-15T12:22:36;14.0;50.0
26641;DHT22;14269;47.358;0.724;2023-04-15T12:25:15;14.0;50.0
26641;DHT22;14269;47.358;0.724;2023-04-15T12:27:51;14.0;50.0
26641;DHT22;14269;47.358;0.724;2023-04-15T12:30:29;14.0;51.0
26641;DHT22;14269;47.358;0.724;2023-04-15T12:33:02;14.0;51.0
26641;DHT22;14269;47.358;0.724;2023-04-15T12:35:42;14.0;50.0
26641;DHT22;14269;47.358;0.724;2023-04-15T12:38:14;14.0;50.0
26641;DHT22;14269;47.358;0.724;2023-04-15T12:40:46;14.0;51.0
26641;DHT22;14269;47.358;0.724;2023-04-15T12:43:18;14.0;50.0
26641;DHT22;14269;47.358;0.724;2023-04-15T12:45:49;14.0;49.0
26641;DHT22;14269;47.358;0.724;2023-04-15T12:48:20;14.0;51.0
26641;DHT22;14269;47.358;0.724;2023-04-15T12:50:52;13.0;51.0
26641;DHT22;14269;47.358;0.724;2023-04-15T12:53:26;14.0;51.0
26641;DHT22;14269;47.358;0.724;2023-04-15T12:56:06;14.0;51.0
26641;DHT22;14269;47.358;0.724;2023-04-15T12:58:37;14.0;51.0
26641;DHT22;14269;47.358;0.724;2023-04-15T13:01:09;15.0;52.0
26641;DHT22;14269;47.358;0.724;2023-04-15T13:03:40;15.0;50.0
26641;DHT22;14269;47.358;0.724;2023-04-15T13:06:12;16.0;49.0
26641;DHT22;14269;47.358;0.724;2023-04-15T13:08:44;16.0;48.0
26641;DHT22;14269;47.358;0.724;2023-04-15T13:11:16;16.0;49.0
26641;DHT22;14269;47.358;0.724;2023-04-15T13:13:47;15.0;48.0
26641;DHT22;14269;47.358;0.724;2023-04-15T13:16:19;15.0;49.0
26641;DHT22;14269;47.358;0.724;2023-04-15T13:19:02;15.0;50.0
26641;DHT22;14269;47.358;0.724;2023-04-15T13:21:42;15.0;49.0
26641;DHT22;14269;47.358;0.724;2023-04-15T13:24:14;14.0;50.0
26641;DHT22;14269;47.358;0.724;2023-04-15T13:26:45;15.0;50.0
26641;DHT22;14269;47.358;0.724;2023-04-15T13:29:17;15.0;50.0
26641;DHT22;14269;47.358;0.724;2023-04-15T13:31:49;15.0;49.0
26641;DHT22;14269;47.358;0.724;2023-04-15T13:34:21;15.0;49.0
26641;DHT22;14269;47.358;0.724;2023-04-15T13:36:52;15.0;49.0
26641;DHT22;14269;47.358;0.724;2023-04-15T13:39:24;15.0;48.0
26641;DHT22;14269;47.358;0.724;2023-04-15T13:41:56;15.0;49.0
26641;DHT22;14269;47.358;0.724;2023-04-15T13:44:27;15.0;49.0
26641;DHT22;14269;47.358;0.724;2023-04-15T13:46:59;16.0;49.0
26641;DHT22;14269;47.358;0.724;2023-04-15T13:49:30;15.0;49.0
26641;DHT22;14269;47.358;0.724;2023-04-15T13:52:02;15.0;48.0
26641;DHT22;14269;47.358;0.724;2023-04-15T13:54:33;14.0;49.0
26641;DHT22;14269;47.358;0.724;2023-04-15T13:57:06;14.0;50.0
26641;DHT22;14269;47.358;0.724;2023-04-15T13:59:37;14.0;50.0
26641;DHT22;14269;47.358;0.724;2023-04-15T14:02:08;14.0;51.0
26641;DHT22;14269;47.358;0.724;2023-04-15T14:04:40;14.0;50.0
26641;DHT22;14269;47.358;0.724;2023-04-15T14:07:12;15.0;49.0
26641;DHT22;14269;47.358;0.724;2023-04-15T14:09:43;15.0;51.0
26641;DHT22;14269;47.358;0.724;2023-04-15T14:12:15;15.0;52.0
26641;DHT22;14269;47.358;0.724;2023-04-15T14:14:47;15.0;51.0
26641;DHT22;14269;47.358;0.724;2023-04-15T14:17:18;16.0;50.0
26641;DHT22;14269;47.358;0.724;2023-04-15T14:19:50;16.0;50.0
26641;DHT22;14269;47.358;0.724;2023-04-15T14:22:22;16.0;50.0
26641;DHT22;14269;47.358;0.724;2023-04-15T14:24:54;17.0;48.0
26641;DHT22;14269;47.358;0.724;2023-04-15T14:27:26;17.0;48.0
26641;DHT22;14269;47.358;0.724;2023-04-15T14:29:57;17.0;48.0
26641;DHT22;14269;47.358;0.724;2023-04-15T14:32:28;17.0;48.0
26641;DHT22;14269;47.358;0.724;2023-04-15T14:35:00;16.0;49.0
26641;DHT22;14269;47.358;0.724;2023-04-15T14:37:32;16.0;49.0
26641;DHT22;14269;47.358;0.724;2023-04-15T14:40:04;15.0;50.0
26641;DHT22;14269;47.358;0.724;2023-04-15T14:42:45;15.0;50.0
26641;DHT22;14269;47.358;0.724;2023-04-15T14:45:17;15.0;51.0
26641;DHT22;14269;47.358;0.724;2023-04-15T14:47:48;16.0;51.0
26641;DHT22;14269;47.358;0.724;2023-04-15T14:50:20;16.0;49.0
26641;DHT22;14269;47.358;0.724;2023-04-15T14:52:52;16.0;50.0
26641;DHT22;14269;47.358;0.724;2023-04-15T14:55:23;17.0;49.0
26641;DHT22;14269;47.358;0.724;2023-04-15T14:57:55;17.0;48.0
26641;DHT22;14269;47.358;0.724;2023-04-15T15:00:26;16.0;48.0
26641;DHT22;14269;47.358;0.724;2023-04-15T15:02:58;17.0;49.0
26641;DHT22;14269;47.358;0.724;2023-04-15T15:05:30;17.0;47.0
26641;DHT22;14269;47.358;0.724;2023-04-15T15:08:01;16.0;48.0
26641;DHT22;14269;47.358;0.724;2023-04-15T15:10:33;17.0;50.0
26641;DHT22;14269;47.358;0.724;2023-04-15T15:13:07;17.0;49.0
26641;DHT22;14269;47.358;0.724;2023-04-15T15:15:48;16.0;49.0
26641;DHT22;14269;47.358;0.724;2023-04-15T15:18:29;16.0;49.0
26641;DHT22;14269;47.358;0.724;2023-04-15T15:21:11;16.0;47.0
26641;DHT22;14269;47.358;0.724;2023-04-15T15:23:42;16.0;48.0
26641;DHT22;14269;47.358;0.724;2023-04-15T15:26:14;16.0;47.0
26641;DHT22;14269;47.358;0.724;2023-04-15T15:28:45;16.0;48.0
26641;DHT22;14269;47.358;0.724;2023-04-15T15:31:17;15.0;49.0
26641;DHT22;14269;47.358;0.724;2023-04-15T15:33:48;15.0;50.0
26641;DHT22;14269;47.358;0.724;2023-04-15T15:36:20;15.0;50.0
26641;DHT22;14269;47.358;0.724;2023-04-15T15:38:51;15.0;50.0
26641;DHT22;14269;47.358;0.724;2023-04-15T15:41:24;15.0;51.0
26641;DHT22;14269;47.358;0.724;2023-04-15T15:43:55;15.0;51.0
26641;DHT22;14269;47.358;0.724;2023-04-15T15:46:27;15.0;51.0
26641;DHT22;14269;47.358;0.724;2023-04-15T15:49:10;14.0;52.0
26641;DHT22;14269;47.358;0.724;2023-04-15T15:51:50;14.0;52.0
26641;DHT22;14269;47.358;0.724;2023-04-15T15:54:22;14.0;52.0
26641;DHT22;14269;47.358;0.724;2023-04-15T15:56:53;14.0;52.0
26641;DHT22;14269;47.358;0.724;2023-04-15T15:59:25;14.0;52.0
26641;DHT22;14269;47.358;0.724;2023-04-15T16:01:56;14.0;51.0
26641;DHT22;14269;47.358;0.724;2023-04-15T16:04:28;14.0;52.0
26641;DHT22;14269;47.358;0.724;2023-04-15T16:07:00;14.0;51.0
26641;DHT22;14269;47.358;0.724;2023-04-15T16:09:31;14.0;51.0
26641;DHT22;14269;47.358;0.724;2023-04-15T16:12:03;14.0;52.0
26641;DHT22;14269;47.358;0.724;2023-04-15T16:14:35;14.0;52.0
26641;DHT22;14269;47.358;0.724;2023-04-15T16:17:06;14.0;52.0
26641;DHT22;14269;47.358;0.724;2023-04-15T16:19:38;14.0;52.0
26641;DHT22;14269;47.358;0.724;2023-04-15T16:22:10;14.0;52.0
26641;DHT22;14269;47.358;0.724;2023-04-15T16:24:41;14.0;53.0
26641;DHT22;14269;47.358;0.724;2023-04-15T16:27:15;14.0;53.0
26641;DHT22;14269;47.358;0.724;2023-04-15T16:29:55;14.0;52.0
26641;DHT22;14269;47.358;0.724;2023-04-15T16:32:26;14.0;51.0
26641;DHT22;14269;47.358;0.724;2023-04-15T16:34:58;14.0;50.0
26641;DHT22;14269;47.358;0.724;2023-04-15T16:37:32;14.0;51.0
26641;DHT22;14269;47.358;0.724;2023-04-15T16:40:12;14.0;52.0
26641;DHT22;14269;47.358;0.724;2023-04-15T16:42:43;13.0;52.0
26641;DHT22;14269;47.358;0.724;2023-04-15T16:45:15;13.0;53.0
26641;DHT22;14269;47.358;0.724;2023-04-15T16:47:46;13.0;53.0
26641;DHT22;14269;47.358;0.724;2023-04-15T16:50:18;13.0;53.0
26641;DHT22;14269;47.358;0.724;2023-04-15T16:52:50;13.0;54.0